createdAt,value
2022-12-20T00:01:21.934Z,12.00
2022-12-20T00:03:52.763Z,12.10
2022-12-20T00:06:19.999Z,12.10
2022-12-20T00:08:47.374Z,12.10
2022-12-20T00:11:14.400Z,12.20
2022-12-20T00:13:41.570Z,12.20
2022-12-20T00:16:08.476Z,12.20
2022-12-20T00:18:35.878Z,12.20
2022-12-20T00:21:03.522Z,12.20
2022-12-20T00:23:30.433Z,12.30
2022-12-20T00:26:01.104Z,12.30
2022-12-20T00:28:28.318Z,12.30
2022-12-20T00:30:55.889Z,12.30
2022-12-20T00:33:22.898Z,12.30
2022-12-20T00:35:49.859Z,12.30
2022-12-20T00:38:16.734Z,12.30
2022-12-20T00:40:43.658Z,12.30
2022-12-20T00:43:10.528Z,12.30
2022-12-20T00:45:37.538Z,12.30
2022-12-20T00:48:04.793Z,12.30
2022-12-20T00:50:31.775Z,12.30
2022-12-20T00:52:58.785Z,12.30
2022-12-20T00:55:25.740Z,12.20
2022-12-20T00:57:52.665Z,12.20
2022-12-20T01:00:19.873Z,12.20
2022-12-20T01:02:46.947Z,12.20
2022-12-20T01:05:13.963Z,12.20
2022-12-20T01:07:40.908Z,12.20
2022-12-20T01:10:08.147Z,12.20
2022-12-20T01:12:35.059Z,12.20
2022-12-20T01:15:01.910Z,12.20
2022-12-20T01:17:28.833Z,12.10
2022-12-20T01:19:55.691Z,12.10
2022-12-20T01:22:22.615Z,12.10
2022-12-20T01:24:49.564Z,12.10
2022-12-20T01:27:16.534Z,12.10
2022-12-20T01:29:43.379Z,12.10
2022-12-20T01:32:10.454Z,12.10
2022-12-20T01:34:37.483Z,12.20
2022-12-20T01:37:04.312Z,12.10
2022-12-20T01:39:31.197Z,12.10
2022-12-20T01:41:58.058Z,12.00
2022-12-20T01:44:25.135Z,11.90
2022-12-20T01:46:52.479Z,11.80
2022-12-20T01:49:34.917Z,11.80
2022-12-20T01:52:20.613Z,11.80
2022-12-20T01:54:47.515Z,11.70
2022-12-20T01:57:16.795Z,11.70
2022-12-20T01:59:44.817Z,11.70
2022-12-20T02:02:13.081Z,11.70
2022-12-20T02:04:40.143Z,11.70
2022-12-20T02:07:08.417Z,11.80
2022-12-20T02:09:36.207Z,11.80
2022-12-20T02:12:03.039Z,11.80
2022-12-20T02:14:29.929Z,11.90
2022-12-20T02:17:02.980Z,11.90
2022-12-20T02:19:35.896Z,11.90
2022-12-20T02:22:21.390Z,11.90
2022-12-20T02:25:01.380Z,11.90
2022-12-20T02:27:32.280Z,11.90
2022-12-20T02:30:01.991Z,11.90
2022-12-20T02:32:31.989Z,11.90
2022-12-20T02:34:58.972Z,12.00
2022-12-20T02:37:25.876Z,12.00
2022-12-20T02:39:52.898Z,12.00
2022-12-20T02:42:21.717Z,12.00
2022-12-20T02:45:09.013Z,12.00
2022-12-20T02:47:38.410Z,12.00
2022-12-20T02:50:06.722Z,12.00
2022-12-20T02:52:34.272Z,12.00
2022-12-20T02:55:02.330Z,12.10
2022-12-20T02:58:00.671Z,12.10
2022-12-20T03:00:32.366Z,12.10
2022-12-20T03:03:17.700Z,12.10
2022-12-20T03:05:45.773Z,12.10
2022-12-20T03:08:12.649Z,12.10
2022-12-20T03:10:39.702Z,12.20
2022-12-20T03:13:06.650Z,12.20
2022-12-20T03:15:33.490Z,12.20
2022-12-20T03:18:00.426Z,12.20
2022-12-20T03:20:27.296Z,12.20
2022-12-20T03:22:54.339Z,12.20
2022-12-20T03:25:21.183Z,12.30
2022-12-20T03:27:48.218Z,12.30
2022-12-20T03:30:15.368Z,12.30
2022-12-20T03:32:42.223Z,12.40
2022-12-20T03:35:09.200Z,12.40
2022-12-20T03:37:36.468Z,12.40
2022-12-20T03:40:03.871Z,12.40
2022-12-20T03:42:30.721Z,12.40
2022-12-20T03:44:57.666Z,12.40
2022-12-20T03:47:24.578Z,12.40
2022-12-20T03:49:52.239Z,12.40
2022-12-20T03:52:19.167Z,12.40
2022-12-20T03:54:46.076Z,12.40
2022-12-20T03:57:13.034Z,12.40
2022-12-20T03:59:39.944Z,12.40
2022-12-20T04:02:06.892Z,12.50
2022-12-20T04:04:33.933Z,12.50
2022-12-20T04:07:01.278Z,12.50
2022-12-20T04:09:28.195Z,12.50
2022-12-20T04:11:55.052Z,12.40
2022-12-20T04:14:21.909Z,12.50
2022-12-20T04:16:48.819Z,12.50
2022-12-20T04:19:15.681Z,12.50
2022-12-20T04:21:42.647Z,12.50
2022-12-20T04:24:10.681Z,12.50
2022-12-20T04:26:38.026Z,12.60
2022-12-20T04:29:05.011Z,12.50
2022-12-20T04:31:32.075Z,12.60
2022-12-20T04:33:59.203Z,12.50
2022-12-20T04:36:26.071Z,12.50
2022-12-20T04:38:53.032Z,12.50
2022-12-20T04:41:22.986Z,12.50
2022-12-20T04:43:51.133Z,12.50
2022-12-20T04:46:18.469Z,12.60
2022-12-20T04:48:57.221Z,12.50
2022-12-20T04:51:25.009Z,12.50
2022-12-20T04:53:51.895Z,12.50
2022-12-20T04:56:23.258Z,12.50
2022-12-20T04:58:51.082Z,12.50
2022-12-20T05:01:18.646Z,12.40
2022-12-20T05:03:45.678Z,12.40
2022-12-20T05:06:12.950Z,12.40
2022-12-20T05:08:40.102Z,12.40
2022-12-20T05:11:07.210Z,12.40
2022-12-20T05:13:34.296Z,12.30
2022-12-20T05:16:01.293Z,12.30
2022-12-20T05:18:28.276Z,12.30
2022-12-20T05:21:15.929Z,12.20
2022-12-20T05:24:01.579Z,12.20
2022-12-20T05:26:30.489Z,12.20
2022-12-20T05:28:57.541Z,12.20
2022-12-20T05:31:24.479Z,12.20
2022-12-20T05:33:51.540Z,12.20
2022-12-20T05:36:18.646Z,12.20
2022-12-20T05:38:45.590Z,12.20
2022-12-20T05:41:12.505Z,12.20
2022-12-20T05:43:39.367Z,12.20
2022-12-20T05:46:06.417Z,12.20
2022-12-20T05:48:34.228Z,12.20
2022-12-20T05:51:01.489Z,12.10
2022-12-20T05:53:28.417Z,12.10
2022-12-20T05:55:55.588Z,12.00
2022-12-20T05:58:22.531Z,12.00
2022-12-20T06:00:49.511Z,12.00
2022-12-20T06:03:17.434Z,11.90
2022-12-20T06:05:45.179Z,11.90
2022-12-20T06:08:12.532Z,11.90
2022-12-20T06:10:41.015Z,11.90
2022-12-20T06:13:08.597Z,11.90
2022-12-20T06:15:35.533Z,11.90
2022-12-20T06:18:02.530Z,11.90
2022-12-20T06:20:29.688Z,11.80
2022-12-20T06:22:56.587Z,11.80
2022-12-20T06:25:23.431Z,11.80
2022-12-20T06:27:50.335Z,11.70
2022-12-20T06:30:17.656Z,11.70
2022-12-20T06:32:44.624Z,11.70
2022-12-20T06:35:11.909Z,11.80
2022-12-20T06:37:40.735Z,11.80
2022-12-20T06:40:09.270Z,11.80
2022-12-20T06:42:36.219Z,11.80
2022-12-20T06:45:03.899Z,11.70
2022-12-20T06:47:30.999Z,11.70
2022-12-20T06:49:57.960Z,11.70
2022-12-20T06:52:25.933Z,11.70
2022-12-20T06:54:53.157Z,11.70
2022-12-20T06:57:20.129Z,11.70
2022-12-20T06:59:47.047Z,11.80
2022-12-20T07:02:14.249Z,11.80
2022-12-20T07:04:41.430Z,11.80
2022-12-20T07:07:08.373Z,11.80
2022-12-20T07:09:35.618Z,11.70
2022-12-20T07:12:02.496Z,11.80
2022-12-20T07:14:29.570Z,11.80
2022-12-20T07:16:56.531Z,11.80
2022-12-20T07:19:23.463Z,11.80
2022-12-20T07:21:50.337Z,11.90
2022-12-20T07:24:17.255Z,11.90
2022-12-20T07:26:44.847Z,11.90
2022-12-20T07:29:15.716Z,12.00
2022-12-20T07:31:43.659Z,12.00
2022-12-20T07:34:10.957Z,12.00
2022-12-20T07:36:37.937Z,12.00
2022-12-20T07:39:04.746Z,12.00
2022-12-20T07:41:31.757Z,12.00
2022-12-20T07:43:59.565Z,12.10
2022-12-20T07:46:26.692Z,12.10
2022-12-20T07:48:53.862Z,12.00
2022-12-20T07:51:25.035Z,12.10
2022-12-20T07:53:59.389Z,12.10
2022-12-20T07:56:26.942Z,12.10
2022-12-20T07:58:56.549Z,12.00
2022-12-20T08:01:23.620Z,12.10
2022-12-20T08:03:53.529Z,12.10
2022-12-20T08:06:21.101Z,12.00
2022-12-20T08:08:50.396Z,12.00
2022-12-20T08:11:17.829Z,12.00
2022-12-20T08:13:46.804Z,12.00
2022-12-20T08:16:15.010Z,12.00
2022-12-20T08:18:43.489Z,12.00
2022-12-20T08:21:13.219Z,11.90
2022-12-20T08:23:40.388Z,11.90
2022-12-20T08:26:07.268Z,11.90
2022-12-20T08:28:34.551Z,11.90
2022-12-20T08:31:02.661Z,11.90
2022-12-20T08:33:29.931Z,11.90
2022-12-20T08:35:57.527Z,11.90
2022-12-20T08:38:25.856Z,11.90
2022-12-20T08:40:52.753Z,11.90
2022-12-20T08:43:19.597Z,11.90
2022-12-20T08:45:51.899Z,11.90
2022-12-20T08:48:18.759Z,12.00
2022-12-20T08:50:45.697Z,11.90
2022-12-20T08:53:12.642Z,11.80
2022-12-20T08:55:39.523Z,11.70
2022-12-20T08:58:06.393Z,11.70
2022-12-20T09:00:34.050Z,11.70
2022-12-20T09:03:01.034Z,11.60
2022-12-20T09:05:28.040Z,11.60
2022-12-20T09:07:54.901Z,11.60
2022-12-20T09:10:21.789Z,11.60
2022-12-20T09:12:48.624Z,11.60
2022-12-20T09:15:15.481Z,11.60
2022-12-20T09:17:42.316Z,11.60
2022-12-20T09:20:09.486Z,11.60
2022-12-20T09:22:36.351Z,11.60
2022-12-20T09:25:03.192Z,11.70
2022-12-20T09:27:30.075Z,11.70
2022-12-20T09:29:56.925Z,11.60
2022-12-20T09:32:23.748Z,11.60
2022-12-20T09:34:50.689Z,11.70
2022-12-20T09:37:17.508Z,11.70
2022-12-20T09:39:44.334Z,11.70
2022-12-20T09:42:15.013Z,11.70
2022-12-20T09:44:42.632Z,11.70
2022-12-20T09:47:15.830Z,11.70
2022-12-20T09:49:44.470Z,11.70
2022-12-20T09:52:17.538Z,11.70
2022-12-20T09:54:47.496Z,11.70
2022-12-20T09:57:23.239Z,11.70
2022-12-20T09:59:50.363Z,11.70
2022-12-20T10:02:54.250Z,11.70
2022-12-20T10:05:15.824Z,11.70
2022-12-20T10:07:49.257Z,11.70
2022-12-20T10:10:31.476Z,11.70
2022-12-20T10:13:04.777Z,11.70
2022-12-20T10:15:38.660Z,11.70
2022-12-20T10:18:27.120Z,11.70
2022-12-20T10:21:04.191Z,11.70
2022-12-20T10:23:33.636Z,11.70
2022-12-20T10:26:01.361Z,11.70
2022-12-20T10:28:35.753Z,11.70
2022-12-20T10:31:03.716Z,11.70
2022-12-20T10:33:31.732Z,11.70
2022-12-20T10:36:17.516Z,11.70
2022-12-20T10:38:46.068Z,11.70
2022-12-20T10:41:22.713Z,11.70
2022-12-20T10:43:53.019Z,11.70
2022-12-20T10:46:20.084Z,11.70
2022-12-20T10:48:48.131Z,11.70
2022-12-20T10:51:17.285Z,11.80
2022-12-20T10:53:53.363Z,11.80
2022-12-20T10:56:30.553Z,11.70
2022-12-20T10:59:15.597Z,11.70
2022-12-20T11:01:44.365Z,11.70
2022-12-20T11:04:27.001Z,11.80
2022-12-20T11:06:54.185Z,11.70
2022-12-20T11:09:21.034Z,11.70
2022-12-20T11:11:58.525Z,11.70
2022-12-20T11:14:25.589Z,11.70
2022-12-20T11:16:53.651Z,11.80
2022-12-20T11:19:29.616Z,11.80
2022-12-20T11:22:03.762Z,11.80
2022-12-20T11:24:35.575Z,11.80
2022-12-20T11:27:34.556Z,11.80
2022-12-20T11:30:13.366Z,11.80
2022-12-20T11:32:46.501Z,11.80
2022-12-20T11:35:35.615Z,11.80
2022-12-20T11:38:11.359Z,11.70
2022-12-20T11:41:16.455Z,11.70
2022-12-20T11:44:25.150Z,11.80
2022-12-20T11:47:11.385Z,11.80
2022-12-20T11:49:38.362Z,11.80
2022-12-20T11:52:10.204Z,11.80
2022-12-20T11:54:41.749Z,11.80
2022-12-20T11:57:19.092Z,11.80
2022-12-20T11:59:52.791Z,11.80
2022-12-20T12:02:26.617Z,11.80
2022-12-20T12:05:01.625Z,11.80
2022-12-20T12:07:32.928Z,11.80
2022-12-20T12:10:05.826Z,11.80
2022-12-20T12:12:42.808Z,11.80
2022-12-20T12:15:16.921Z,11.80
2022-12-20T12:18:02.810Z,11.80
2022-12-20T12:20:36.594Z,11.80
2022-12-20T12:23:13.063Z,11.80
2022-12-20T12:25:41.637Z,11.80
2022-12-20T12:28:10.784Z,11.80
2022-12-20T12:30:39.947Z,11.80
2022-12-20T12:33:22.131Z,11.70
2022-12-20T12:35:56.945Z,11.70
2022-12-20T12:38:42.609Z,11.80
2022-12-20T12:41:09.515Z,11.70
2022-12-20T12:43:55.888Z,11.70
2022-12-20T12:46:26.342Z,11.70
2022-12-20T12:48:56.055Z,11.70
2022-12-20T12:51:28.521Z,11.70
2022-12-20T12:54:03.284Z,11.70
2022-12-20T12:56:47.237Z,11.70
2022-12-20T12:59:17.152Z,11.70
2022-12-20T13:01:56.877Z,11.70
2022-12-20T13:04:25.815Z,11.70
2022-12-20T13:06:55.991Z,11.70
2022-12-20T13:09:25.944Z,11.70
2022-12-20T13:12:01.085Z,11.60
2022-12-20T13:14:30.305Z,11.60
2022-12-20T13:17:12.832Z,11.60
2022-12-20T13:19:49.643Z,11.60
2022-12-20T13:22:22.169Z,11.60
2022-12-20T13:24:57.283Z,11.50
2022-12-20T13:27:25.514Z,11.50
2022-12-20T13:29:55.385Z,11.50
2022-12-20T13:32:40.913Z,11.60
2022-12-20T13:35:28.322Z,11.60
2022-12-20T13:37:55.485Z,11.60
2022-12-20T13:40:44.285Z,11.60
2022-12-20T13:43:16.082Z,11.60
2022-12-20T13:45:45.597Z,11.60
2022-12-20T13:48:15.483Z,11.60
2022-12-20T13:50:48.478Z,11.60
2022-12-20T13:53:19.274Z,11.60
2022-12-20T13:55:46.567Z,11.60
2022-12-20T13:58:16.039Z,11.50
2022-12-20T14:00:43.311Z,11.50
2022-12-20T14:03:17.096Z,11.50
2022-12-20T14:05:44.062Z,11.50
2022-12-20T14:08:22.710Z,11.50
2022-12-20T14:10:52.122Z,11.50
2022-12-20T14:13:23.863Z,11.50
2022-12-20T14:15:50.830Z,11.50
2022-12-20T14:18:19.263Z,11.50
2022-12-20T14:20:56.589Z,11.50
2022-12-20T14:23:24.596Z,11.50
2022-12-20T14:26:00.008Z,11.50
2022-12-20T14:28:31.875Z,11.50
2022-12-20T14:30:59.834Z,11.50
2022-12-20T14:33:29.999Z,11.40
2022-12-20T14:35:56.911Z,11.40
2022-12-20T14:38:28.334Z,11.50
2022-12-20T14:40:56.090Z,11.50
2022-12-20T14:43:27.517Z,11.40
2022-12-20T14:46:07.619Z,11.40
2022-12-20T14:48:34.542Z,11.40
2022-12-20T14:51:05.926Z,11.40
2022-12-20T14:53:35.074Z,11.40
2022-12-20T14:56:03.636Z,11.40
2022-12-20T14:58:31.769Z,11.40
2022-12-20T15:01:00.375Z,11.40
2022-12-20T15:03:27.850Z,11.40
2022-12-20T15:05:56.353Z,11.40
2022-12-20T15:08:23.514Z,11.40
2022-12-20T15:10:55.440Z,11.40
2022-12-20T15:13:25.709Z,11.40
2022-12-20T15:15:52.751Z,11.40
2022-12-20T15:18:20.592Z,11.40
2022-12-20T15:20:49.231Z,11.40
2022-12-20T15:23:17.231Z,11.40
2022-12-20T15:25:45.098Z,11.40
2022-12-20T15:28:22.804Z,11.40
2022-12-20T15:30:50.653Z,11.30
2022-12-20T15:33:20.137Z,11.30
2022-12-20T15:35:47.567Z,11.30
2022-12-20T15:38:16.747Z,11.30
2022-12-20T15:40:44.375Z,11.30
2022-12-20T15:43:15.621Z,11.30
2022-12-20T15:45:43.484Z,11.40
2022-12-20T15:48:14.435Z,11.40
2022-12-20T15:50:42.709Z,11.40
2022-12-20T15:53:22.801Z,11.40
2022-12-20T15:55:50.557Z,11.40
2022-12-20T15:58:17.605Z,11.30
2022-12-20T16:00:44.920Z,11.40
2022-12-20T16:03:16.359Z,11.40
2022-12-20T16:05:43.590Z,11.30
2022-12-20T16:08:10.808Z,11.30
2022-12-20T16:10:37.784Z,11.30
2022-12-20T16:13:04.723Z,11.30
2022-12-20T16:15:31.672Z,11.30
2022-12-20T16:17:58.673Z,11.30
2022-12-20T16:20:27.708Z,11.30
2022-12-20T16:22:54.689Z,11.30
2022-12-20T16:25:29.709Z,11.40
2022-12-20T16:27:57.182Z,11.30
2022-12-20T16:30:25.165Z,11.30
2022-12-20T16:32:52.635Z,11.30
2022-12-20T16:35:22.996Z,11.30
2022-12-20T16:37:49.899Z,11.30
2022-12-20T16:40:16.820Z,11.30
2022-12-20T16:42:43.645Z,11.30
2022-12-20T16:45:19.330Z,11.30
2022-12-20T16:47:49.051Z,11.30
2022-12-20T16:50:16.699Z,11.30
2022-12-20T16:52:43.751Z,11.30
2022-12-20T16:55:26.918Z,11.30
2022-12-20T16:57:54.299Z,11.20
2022-12-20T17:00:25.675Z,11.30
2022-12-20T17:02:52.969Z,11.30
2022-12-20T17:05:20.057Z,11.20
2022-12-20T17:07:46.915Z,11.20
2022-12-20T17:10:13.847Z,11.20
2022-12-20T17:12:40.769Z,11.20
2022-12-20T17:15:13.179Z,11.20
2022-12-20T17:17:40.029Z,11.20
2022-12-20T17:20:07.266Z,11.20
2022-12-20T17:22:34.159Z,11.10
2022-12-20T17:25:01.054Z,11.20
2022-12-20T17:27:27.991Z,11.20
2022-12-20T17:29:54.941Z,11.20
2022-12-20T17:32:23.124Z,11.20
2022-12-20T17:34:50.392Z,11.20
2022-12-20T17:37:18.203Z,11.20
2022-12-20T17:39:45.169Z,11.20
2022-12-20T17:42:13.222Z,11.10
2022-12-20T17:44:40.638Z,11.20
2022-12-20T17:47:07.700Z,11.20
2022-12-20T17:49:34.697Z,11.10
2022-12-20T17:52:01.627Z,11.10
2022-12-20T17:54:34.915Z,11.20
2022-12-20T17:57:05.776Z,11.10
2022-12-20T17:59:32.659Z,11.20
2022-12-20T18:01:59.785Z,11.20
2022-12-20T18:04:27.030Z,11.20
2022-12-20T18:06:53.950Z,11.10
2022-12-20T18:09:21.700Z,11.20
2022-12-20T18:11:48.990Z,11.10
2022-12-20T18:14:16.406Z,11.10
2022-12-20T18:16:43.317Z,11.10
2022-12-20T18:19:18.288Z,11.10
2022-12-20T18:21:45.876Z,11.10
2022-12-20T18:24:13.805Z,11.10
2022-12-20T18:26:41.028Z,11.10
2022-12-20T18:29:08.101Z,11.10
2022-12-20T18:31:35.247Z,11.20
2022-12-20T18:34:02.316Z,11.10
2022-12-20T18:36:36.546Z,11.10
2022-12-20T18:39:04.790Z,11.10
2022-12-20T18:41:31.870Z,11.10
2022-12-20T18:44:00.403Z,11.10
2022-12-20T18:46:27.339Z,11.20
2022-12-20T18:48:55.056Z,11.10
2022-12-20T18:51:23.747Z,11.10
2022-12-20T18:53:53.851Z,11.10
2022-12-20T18:56:21.929Z,11.10
2022-12-20T18:58:48.985Z,11.10
2022-12-20T19:01:20.242Z,11.10
2022-12-20T19:03:48.411Z,11.10
2022-12-20T19:06:15.335Z,11.10
2022-12-20T19:08:42.254Z,11.10
2022-12-20T19:11:12.990Z,11.10
2022-12-20T19:13:40.223Z,11.10
2022-12-20T19:16:17.723Z,11.10
2022-12-20T19:18:45.052Z,11.10
2022-12-20T19:21:13.954Z,11.10
2022-12-20T19:23:41.914Z,11.10
2022-12-20T19:26:11.954Z,11.10
2022-12-20T19:28:39.344Z,11.10
2022-12-20T19:31:15.639Z,11.00
2022-12-20T19:33:47.435Z,11.10
2022-12-20T19:36:15.856Z,11.10
2022-12-20T19:38:43.944Z,11.10
2022-12-20T19:41:11.067Z,11.00
2022-12-20T19:43:37.982Z,11.00
2022-12-20T19:46:05.079Z,11.00
2022-12-20T19:48:33.418Z,11.00
2022-12-20T19:51:06.707Z,11.00
2022-12-20T19:53:33.684Z,11.00
2022-12-20T19:56:00.572Z,11.00
2022-12-20T19:58:27.493Z,11.00
2022-12-20T20:00:55.140Z,11.00
2022-12-20T20:03:22.319Z,11.00
2022-12-20T20:05:49.433Z,11.00
2022-12-20T20:08:16.919Z,11.00
2022-12-20T20:10:44.866Z,11.00
2022-12-20T20:13:12.066Z,11.00
2022-12-20T20:15:39.037Z,11.00
2022-12-20T20:18:05.997Z,11.00
2022-12-20T20:20:35.039Z,11.00
2022-12-20T20:23:01.921Z,11.10
2022-12-20T20:25:28.921Z,11.00
2022-12-20T20:27:55.851Z,11.10
2022-12-20T20:30:22.696Z,11.10
2022-12-20T20:32:49.575Z,11.10
2022-12-20T20:35:17.338Z,11.10
2022-12-20T20:37:44.512Z,11.10
2022-12-20T20:40:13.974Z,11.10
2022-12-20T20:42:40.844Z,11.10
2022-12-20T20:45:08.075Z,11.10
2022-12-20T20:47:35.224Z,11.10
2022-12-20T20:50:02.145Z,11.10
2022-12-20T20:52:28.995Z,11.10
2022-12-20T20:54:56.065Z,11.20
2022-12-20T20:57:22.899Z,11.20
2022-12-20T20:59:49.849Z,11.10
2022-12-20T21:02:16.841Z,11.20
2022-12-20T21:04:58.663Z,11.10
2022-12-20T21:07:30.666Z,11.20
2022-12-20T21:09:57.559Z,11.10
2022-12-20T21:12:24.509Z,11.10
2022-12-20T21:15:21.388Z,11.10
2022-12-20T21:17:38.357Z,11.20
2022-12-20T21:20:05.450Z,11.10
2022-12-20T21:22:32.403Z,11.20
2022-12-20T21:25:00.497Z,11.40
2022-12-20T21:27:27.517Z,11.60
2022-12-20T21:29:54.383Z,11.80
2022-12-20T21:32:21.236Z,12.00
2022-12-20T21:34:48.199Z,12.00
2022-12-20T21:37:15.068Z,12.20
2022-12-20T21:39:41.957Z,12.20
2022-12-20T21:42:08.810Z,12.20
2022-12-20T21:44:35.726Z,12.30
2022-12-20T21:47:02.719Z,12.30
2022-12-20T21:49:29.659Z,12.30
2022-12-20T21:51:57.098Z,12.30
2022-12-20T21:54:24.049Z,12.30
2022-12-20T21:56:50.900Z,12.40
2022-12-20T21:59:17.783Z,12.40
2022-12-20T22:01:46.302Z,12.40
2022-12-20T22:04:14.051Z,12.30
2022-12-20T22:06:41.511Z,12.30
2022-12-20T22:09:10.299Z,12.40
2022-12-20T22:11:37.291Z,12.30
2022-12-20T22:14:04.569Z,12.30
2022-12-20T22:16:35.118Z,12.30
2022-12-20T22:19:02.548Z,12.20
2022-12-20T22:21:30.858Z,12.30
2022-12-20T22:23:58.540Z,12.30
2022-12-20T22:26:26.669Z,12.30
2022-12-20T22:28:55.387Z,12.30
2022-12-20T22:31:22.509Z,12.30
2022-12-20T22:33:49.623Z,12.30
2022-12-20T22:36:16.854Z,12.30
2022-12-20T22:38:43.835Z,12.30
2022-12-20T22:41:15.336Z,12.30
2022-12-20T22:43:42.807Z,12.30
2022-12-20T22:46:12.430Z,12.30
2022-12-20T22:48:39.816Z,12.30
2022-12-20T22:51:33.883Z,12.30
2022-12-20T22:54:01.215Z,12.30
2022-12-20T22:56:28.112Z,12.30
2022-12-20T22:58:54.996Z,12.30
2022-12-20T23:01:21.984Z,12.30
2022-12-20T23:03:49.514Z,12.30
2022-12-20T23:06:18.030Z,12.30
2022-12-20T23:08:44.962Z,12.30
2022-12-20T23:11:40.796Z,12.30
2022-12-20T23:14:36.298Z,12.30
2022-12-20T23:17:03.442Z,12.20
2022-12-20T23:19:53.299Z,12.20
2022-12-20T23:22:40.423Z,12.20
2022-12-20T23:25:08.644Z,12.20
2022-12-20T23:27:35.687Z,12.20
2022-12-20T23:30:04.375Z,12.10
2022-12-20T23:32:31.380Z,12.10
2022-12-20T23:34:58.228Z,12.10
2022-12-20T23:37:25.296Z,12.10
2022-12-20T23:39:53.179Z,12.10
2022-12-20T23:42:20.262Z,12.10
2022-12-20T23:44:47.130Z,12.00
2022-12-20T23:47:18.682Z,12.00
2022-12-20T23:49:46.349Z,12.00
2022-12-20T23:52:13.204Z,12.00
2022-12-20T23:54:40.038Z,12.00
2022-12-20T23:57:06.878Z,11.90
2022-12-20T23:59:33.792Z,11.90
